Portada
METAR-TAF:

METAR-TAF

Aeroports :

La Chaux-de-Fonds, Suïssa

latitud: 47-05-03N, longitud: 006-47-37E, altitud: 1027 m

Observació

L'informe es va fer fa 19 minuts, a les 22:20 UTC
Vent calma
Temperatura 16°C
Humitat 94%
Pressió 1024 hPa
Visibilitat 10 km o més
sense núvols per sota de 1500 mi sense presència de cumulonimbus.

METAR: LSGC 182220Z AUTO 00000KT CAVOK 16/15 Q1024

Hora: 00:39 (22:39 UTC)

Pronòstic

L'informe es va fer fa 8 hores i 14 minuts, a les 14:25 UTC
Pronòstic vàlid del 18 a les 15 UTC al 18 a les 24 UTC
Vent 4 kt del Nord
Visibilitat 10 km o més
Escasses núvols a una alçada de 4500 ft

TAF: LSGC 181425Z 1815/1824 35004KT 9999 FEW045

Observacions i pronòstics meteorològics de més de 4000 aeroports (METAR i TAF).

Les estacions disponibles són els punts grocs i vermells al mapa.

Posi el ratolí al punt desitjat per veure el nom de l'estació.

Feu clic per veure les observacions i els pronòstics meteorològics.

Per canviar el mapa: feu clic els botons verds amb una creu de color negre per apropar; al botó verd amb un guió per allunyar la imatge; o en les fletxes verdes per a mapes adjacents.


METAR-TAF: